Creston, Indiana
Current Conditions -  °F | °C
As of 3:15 PM on Friday 31 Oct 2014 (Local Time) from KIGQ Reporting Station
Light Rain Light Rain  
Wind Chill: 30°   Ceiling: 2300
Heat Index: 39°   Visibility: 10mi
Dew Point: 32°   Wind: 18mph
Humidity: 75%   Direction: 360°N
Pressure: 30.15"   Gusts: 36mph
Location:  41.2585°N, 87.4193°W
Report Text: KIGQ 312015Z AUTO 36016G31KT 10SM -RA BKN023 OVC028 04/00 A3015 RMK AO2 T00400000
Loading
Personal Weather Stations






























Interactive Weather Map
Tropical Storm Tracking
New forecast layout! Learn more

10-Day Weather Forecast

Advertisements
Track Severe Weather on mobile